sensor_id;sensor_type;location;lat;lon;timestamp;P1;durP1;ratioP1;P2;durP2;ratioP2
21769;SDS011;11046;49.558;8.674;2023-05-07T00:00:50;4.07;;;2.05;;
21769;SDS011;11046;49.558;8.674;2023-05-07T00:03:51;3.25;;;2.22;;
21769;SDS011;11046;49.558;8.674;2023-05-07T00:06:51;2.78;;;2.13;;
21769;SDS011;11046;49.558;8.674;2023-05-07T00:09:52;3.63;;;2.22;;
21769;SDS011;11046;49.558;8.674;2023-05-07T00:12:52;3.33;;;2.25;;
21769;SDS011;11046;49.558;8.674;2023-05-07T00:15:53;3.47;;;2.28;;
21769;SDS011;11046;49.558;8.674;2023-05-07T00:18:54;3.28;;;2.03;;
21769;SDS011;11046;49.558;8.674;2023-05-07T00:21:54;2.40;;;2.15;;
21769;SDS011;11046;49.558;8.674;2023-05-07T00:24:55;2.45;;;2.08;;
21769;SDS011;11046;49.558;8.674;2023-05-07T00:27:56;3.72;;;2.53;;
21769;SDS011;11046;49.558;8.674;2023-05-07T00:31:02;3.55;;;2.40;;
21769;SDS011;11046;49.558;8.674;2023-05-07T00:34:03;3.15;;;2.10;;
21769;SDS011;11046;49.558;8.674;2023-05-07T00:37:03;3.80;;;2.22;;
21769;SDS011;11046;49.558;8.674;2023-05-07T00:40:04;4.97;;;2.28;;
21769;SDS011;11046;49.558;8.674;2023-05-07T00:43:07;3.58;;;2.30;;
21769;SDS011;11046;49.558;8.674;2023-05-07T00:46:08;2.58;;;1.90;;
21769;SDS011;11046;49.558;8.674;2023-05-07T00:49:10;3.85;;;2.20;;
21769;SDS011;11046;49.558;8.674;2023-05-07T00:52:15;5.15;;;2.08;;
21769;SDS011;11046;49.558;8.674;2023-05-07T00:55:17;3.42;;;2.20;;
21769;SDS011;11046;49.558;8.674;2023-05-07T00:58:17;4.88;;;2.30;;
21769;SDS011;11046;49.558;8.674;2023-05-07T01:01:19;4.03;;;1.85;;
21769;SDS011;11046;49.558;8.674;2023-05-07T01:04:20;5.70;;;2.50;;
21769;SDS011;11046;49.558;8.674;2023-05-07T01:07:20;3.30;;;2.30;;
21769;SDS011;11046;49.558;8.674;2023-05-07T01:10:22;2.85;;;2.25;;
21769;SDS011;11046;49.558;8.674;2023-05-07T01:13:24;3.42;;;2.20;;
21769;SDS011;11046;49.558;8.674;2023-05-07T01:16:25;3.47;;;2.50;;
21769;SDS011;11046;49.558;8.674;2023-05-07T01:19:25;3.08;;;2.50;;
21769;SDS011;11046;49.558;8.674;2023-05-07T01:22:32;4.82;;;2.47;;
21769;SDS011;11046;49.558;8.674;2023-05-07T01:25:34;14.88;;;2.75;;
21769;SDS011;11046;49.558;8.674;2023-05-07T01:28:35;10.25;;;2.95;;
21769;SDS011;11046;49.558;8.674;2023-05-07T01:31:36;3.67;;;3.00;;
21769;SDS011;11046;49.558;8.674;2023-05-07T01:34:37;5.55;;;3.03;;
21769;SDS011;11046;49.558;8.674;2023-05-07T01:37:39;5.72;;;3.20;;
21769;SDS011;11046;49.558;8.674;2023-05-07T01:40:40;4.63;;;2.92;;
21769;SDS011;11046;49.558;8.674;2023-05-07T01:43:41;4.00;;;3.00;;
21769;SDS011;11046;49.558;8.674;2023-05-07T01:46:43;4.07;;;2.70;;
21769;SDS011;11046;49.558;8.674;2023-05-07T01:49:45;5.30;;;3.47;;
21769;SDS011;11046;49.558;8.674;2023-05-07T01:52:45;6.47;;;3.25;;
21769;SDS011;11046;49.558;8.674;2023-05-07T01:55:47;5.60;;;2.65;;
21769;SDS011;11046;49.558;8.674;2023-05-07T01:58:48;4.28;;;2.47;;
21769;SDS011;11046;49.558;8.674;2023-05-07T02:01:51;2.80;;;2.42;;
21769;SDS011;11046;49.558;8.674;2023-05-07T02:04:52;3.63;;;2.40;;
21769;SDS011;11046;49.558;8.674;2023-05-07T02:07:53;2.50;;;2.25;;
21769;SDS011;11046;49.558;8.674;2023-05-07T02:10:54;4.72;;;2.50;;
21769;SDS011;11046;49.558;8.674;2023-05-07T02:13:54;5.30;;;2.58;;
21769;SDS011;11046;49.558;8.674;2023-05-07T02:16:55;2.88;;;2.42;;
21769;SDS011;11046;49.558;8.674;2023-05-07T02:19:56;3.38;;;2.58;;
21769;SDS011;11046;49.558;8.674;2023-05-07T02:22:57;3.10;;;2.35;;
21769;SDS011;11046;49.558;8.674;2023-05-07T02:26:00;2.78;;;2.47;;
21769;SDS011;11046;49.558;8.674;2023-05-07T02:29:01;4.40;;;2.40;;
21769;SDS011;11046;49.558;8.674;2023-05-07T02:32:01;3.22;;;2.53;;
21769;SDS011;11046;49.558;8.674;2023-05-07T02:35:02;3.40;;;2.45;;
21769;SDS011;11046;49.558;8.674;2023-05-07T02:38:03;2.75;;;2.33;;
21769;SDS011;11046;49.558;8.674;2023-05-07T02:41:04;2.80;;;1.83;;
21769;SDS011;11046;49.558;8.674;2023-05-07T02:44:06;4.53;;;2.60;;
21769;SDS011;11046;49.558;8.674;2023-05-07T02:47:07;3.25;;;2.38;;
21769;SDS011;11046;49.558;8.674;2023-05-07T02:50:10;9.15;;;2.47;;
21769;SDS011;11046;49.558;8.674;2023-05-07T02:53:11;3.42;;;2.65;;
21769;SDS011;11046;49.558;8.674;2023-05-07T02:56:11;4.82;;;3.00;;
21769;SDS011;11046;49.558;8.674;2023-05-07T02:59:12;4.90;;;2.70;;
21769;SDS011;11046;49.558;8.674;2023-05-07T03:02:15;4.03;;;2.45;;
21769;SDS011;11046;49.558;8.674;2023-05-07T03:05:15;7.03;;;2.80;;
21769;SDS011;11046;49.558;8.674;2023-05-07T03:08:16;3.63;;;2.75;;
21769;SDS011;11046;49.558;8.674;2023-05-07T03:11:17;5.53;;;3.13;;
21769;SDS011;11046;49.558;8.674;2023-05-07T03:14:17;7.32;;;2.70;;
21769;SDS011;11046;49.558;8.674;2023-05-07T03:17:18;4.75;;;2.90;;
21769;SDS011;11046;49.558;8.674;2023-05-07T03:20:18;3.58;;;2.80;;
21769;SDS011;11046;49.558;8.674;2023-05-07T03:23:19;5.75;;;3.00;;
21769;SDS011;11046;49.558;8.674;2023-05-07T03:26:20;5.85;;;3.10;;
21769;SDS011;11046;49.558;8.674;2023-05-07T03:29:21;6.13;;;2.65;;
21769;SDS011;11046;49.558;8.674;2023-05-07T03:32:21;5.28;;;3.05;;
21769;SDS011;11046;49.558;8.674;2023-05-07T03:35:22;3.42;;;2.53;;
21769;SDS011;11046;49.558;8.674;2023-05-07T03:38:23;5.97;;;2.70;;
21769;SDS011;11046;49.558;8.674;2023-05-07T03:41:24;4.85;;;3.00;;
21769;SDS011;11046;49.558;8.674;2023-05-07T03:44:25;4.63;;;2.88;;
21769;SDS011;11046;49.558;8.674;2023-05-07T03:47:27;5.35;;;3.05;;
21769;SDS011;11046;49.558;8.674;2023-05-07T03:50:28;3.30;;;2.90;;
21769;SDS011;11046;49.558;8.674;2023-05-07T03:53:29;3.00;;;2.40;;
21769;SDS011;11046;49.558;8.674;2023-05-07T03:56:29;4.43;;;2.97;;
21769;SDS011;11046;49.558;8.674;2023-05-07T03:59:32;5.15;;;3.10;;
21769;SDS011;11046;49.558;8.674;2023-05-07T04:02:33;4.97;;;3.10;;
21769;SDS011;11046;49.558;8.674;2023-05-07T04:05:34;4.00;;;2.58;;
21769;SDS011;11046;49.558;8.674;2023-05-07T04:08:37;3.22;;;2.53;;
21769;SDS011;11046;49.558;8.674;2023-05-07T04:11:39;10.15;;;3.20;;
21769;SDS011;11046;49.558;8.674;2023-05-07T04:14:42;4.75;;;2.30;;
21769;SDS011;11046;49.558;8.674;2023-05-07T04:17:42;4.57;;;2.40;;
21769;SDS011;11046;49.558;8.674;2023-05-07T04:20:44;2.70;;;2.30;;
21769;SDS011;11046;49.558;8.674;2023-05-07T04:23:47;3.58;;;2.40;;
21769;SDS011;11046;49.558;8.674;2023-05-07T04:26:48;4.73;;;3.03;;
21769;SDS011;11046;49.558;8.674;2023-05-07T04:29:54;4.22;;;2.70;;
21769;SDS011;11046;49.558;8.674;2023-05-07T04:32:59;3.22;;;2.50;;
21769;SDS011;11046;49.558;8.674;2023-05-07T04:36:02;5.32;;;2.40;;
21769;SDS011;11046;49.558;8.674;2023-05-07T04:39:06;3.70;;;2.30;;
21769;SDS011;11046;49.558;8.674;2023-05-07T04:42:07;6.60;;;2.20;;
21769;SDS011;11046;49.558;8.674;2023-05-07T04:45:09;3.40;;;2.47;;
21769;SDS011;11046;49.558;8.674;2023-05-07T04:48:13;2.65;;;2.22;;
21769;SDS011;11046;49.558;8.674;2023-05-07T04:51:16;6.53;;;2.30;;
21769;SDS011;11046;49.558;8.674;2023-05-07T04:54:17;3.58;;;2.00;;
21769;SDS011;11046;49.558;8.674;2023-05-07T04:57:18;2.75;;;2.22;;
21769;SDS011;11046;49.558;8.674;2023-05-07T05:00:18;5.07;;;2.10;;
21769;SDS011;11046;49.558;8.674;2023-05-07T05:03:21;4.20;;;2.05;;
21769;SDS011;11046;49.558;8.674;2023-05-07T05:06:22;3.13;;;2.42;;
21769;SDS011;11046;49.558;8.674;2023-05-07T05:09:23;3.53;;;2.22;;
21769;SDS011;11046;49.558;8.674;2023-05-07T05:12:24;3.60;;;2.22;;
21769;SDS011;11046;49.558;8.674;2023-05-07T05:15:25;4.63;;;2.42;;
21769;SDS011;11046;49.558;8.674;2023-05-07T05:18:26;4.20;;;2.10;;
21769;SDS011;11046;49.558;8.674;2023-05-07T05:21:26;5.10;;;2.17;;
21769;SDS011;11046;49.558;8.674;2023-05-07T05:24:33;3.85;;;2.00;;
21769;SDS011;11046;49.558;8.674;2023-05-07T05:27:35;4.63;;;2.22;;
21769;SDS011;11046;49.558;8.674;2023-05-07T05:30:35;4.20;;;2.10;;
21769;SDS011;11046;49.558;8.674;2023-05-07T05:33:37;6.07;;;2.05;;
21769;SDS011;11046;49.558;8.674;2023-05-07T05:36:39;7.22;;;3.50;;
21769;SDS011;11046;49.558;8.674;2023-05-07T05:39:40;4.05;;;2.47;;
21769;SDS011;11046;49.558;8.674;2023-05-07T05:42:43;3.17;;;2.50;;
21769;SDS011;11046;49.558;8.674;2023-05-07T05:45:45;5.07;;;2.20;;
21769;SDS011;11046;49.558;8.674;2023-05-07T05:48:46;4.03;;;2.38;;
21769;SDS011;11046;49.558;8.674;2023-05-07T05:51:46;2.90;;;2.40;;
21769;SDS011;11046;49.558;8.674;2023-05-07T05:54:48;4.85;;;2.10;;
21769;SDS011;11046;49.558;8.674;2023-05-07T05:57:49;4.18;;;2.35;;
21769;SDS011;11046;49.558;8.674;2023-05-07T06:00:51;2.88;;;2.28;;
21769;SDS011;11046;49.558;8.674;2023-05-07T06:03:54;3.70;;;2.40;;
21769;SDS011;11046;49.558;8.674;2023-05-07T06:06:55;4.40;;;2.95;;
21769;SDS011;11046;49.558;8.674;2023-05-07T06:09:58;2.50;;;2.10;;
21769;SDS011;11046;49.558;8.674;2023-05-07T06:12:59;4.95;;;2.30;;
21769;SDS011;11046;49.558;8.674;2023-05-07T06:15:59;5.88;;;2.30;;
21769;SDS011;11046;49.558;8.674;2023-05-07T06:19:00;3.28;;;2.28;;
21769;SDS011;11046;49.558;8.674;2023-05-07T06:22:01;3.10;;;2.40;;
21769;SDS011;11046;49.558;8.674;2023-05-07T06:25:03;2.22;;;2.03;;
21769;SDS011;11046;49.558;8.674;2023-05-07T06:28:04;3.22;;;2.35;;
21769;SDS011;11046;49.558;8.674;2023-05-07T06:31:18;2.42;;;2.08;;
21769;SDS011;11046;49.558;8.674;2023-05-07T06:34:33;2.92;;;2.20;;
21769;SDS011;11046;49.558;8.674;2023-05-07T06:37:34;5.07;;;2.05;;
21769;SDS011;11046;49.558;8.674;2023-05-07T06:40:39;10.82;;;2.40;;
21769;SDS011;11046;49.558;8.674;2023-05-07T06:43:40;3.03;;;2.05;;
21769;SDS011;11046;49.558;8.674;2023-05-07T06:47:06;2.80;;;2.10;;
21769;SDS011;11046;49.558;8.674;2023-05-07T06:50:08;4.57;;;2.05;;
21769;SDS011;11046;49.558;8.674;2023-05-07T06:53:10;2.33;;;1.92;;
21769;SDS011;11046;49.558;8.674;2023-05-07T06:56:10;4.05;;;1.95;;
21769;SDS011;11046;49.558;8.674;2023-05-07T06:59:13;2.97;;;1.92;;
21769;SDS011;11046;49.558;8.674;2023-05-07T07:02:14;2.75;;;2.42;;
21769;SDS011;11046;49.558;8.674;2023-05-07T07:05:15;3.10;;;2.03;;
21769;SDS011;11046;49.558;8.674;2023-05-07T07:08:16;3.70;;;2.05;;
21769;SDS011;11046;49.558;8.674;2023-05-07T07:11:18;2.78;;;2.08;;
21769;SDS011;11046;49.558;8.674;2023-05-07T07:14:19;4.55;;;1.80;;
21769;SDS011;11046;49.558;8.674;2023-05-07T07:17:24;2.10;;;1.90;;
21769;SDS011;11046;49.558;8.674;2023-05-07T07:20:25;4.43;;;2.00;;
21769;SDS011;11046;49.558;8.674;2023-05-07T07:23:26;3.00;;;2.05;;
21769;SDS011;11046;49.558;8.674;2023-05-07T07:26:27;2.72;;;2.10;;
21769;SDS011;11046;49.558;8.674;2023-05-07T07:29:28;3.42;;;1.90;;
21769;SDS011;11046;49.558;8.674;2023-05-07T07:32:29;7.65;;;2.08;;
21769;SDS011;11046;49.558;8.674;2023-05-07T07:35:30;2.75;;;1.80;;
21769;SDS011;11046;49.558;8.674;2023-05-07T07:38:31;3.20;;;1.80;;
21769;SDS011;11046;49.558;8.674;2023-05-07T07:41:33;2.45;;;1.70;;
21769;SDS011;11046;49.558;8.674;2023-05-07T07:44:33;3.53;;;1.90;;
21769;SDS011;11046;49.558;8.674;2023-05-07T07:47:40;2.47;;;1.90;;
21769;SDS011;11046;49.558;8.674;2023-05-07T07:50:41;2.17;;;1.85;;
21769;SDS011;11046;49.558;8.674;2023-05-07T07:53:41;6.80;;;1.90;;
21769;SDS011;11046;49.558;8.674;2023-05-07T07:56:42;2.65;;;2.10;;
21769;SDS011;11046;49.558;8.674;2023-05-07T07:59:45;5.40;;;2.20;;
21769;SDS011;11046;49.558;8.674;2023-05-07T08:02:47;2.88;;;1.90;;
21769;SDS011;11046;49.558;8.674;2023-05-07T08:05:56;3.83;;;2.08;;
21769;SDS011;11046;49.558;8.674;2023-05-07T08:08:57;2.67;;;1.80;;
21769;SDS011;11046;49.558;8.674;2023-05-07T08:11:57;1.85;;;1.73;;
21769;SDS011;11046;49.558;8.674;2023-05-07T08:14:58;2.40;;;1.90;;
21769;SDS011;11046;49.558;8.674;2023-05-07T08:17:59;1.98;;;1.77;;
21769;SDS011;11046;49.558;8.674;2023-05-07T08:21:01;1.85;;;1.70;;
21769;SDS011;11046;49.558;8.674;2023-05-07T08:24:04;2.60;;;1.88;;
21769;SDS011;11046;49.558;8.674;2023-05-07T08:27:05;2.40;;;1.90;;
21769;SDS011;11046;49.558;8.674;2023-05-07T08:30:06;3.80;;;1.75;;
21769;SDS011;11046;49.558;8.674;2023-05-07T08:33:08;2.20;;;1.70;;
21769;SDS011;11046;49.558;8.674;2023-05-07T08:36:09;3.75;;;1.85;;
21769;SDS011;11046;49.558;8.674;2023-05-07T08:39:10;2.63;;;1.80;;
21769;SDS011;11046;49.558;8.674;2023-05-07T08:42:11;2.50;;;1.80;;
21769;SDS011;11046;49.558;8.674;2023-05-07T08:45:12;2.15;;;1.73;;
21769;SDS011;11046;49.558;8.674;2023-05-07T08:48:17;3.17;;;1.90;;
21769;SDS011;11046;49.558;8.674;2023-05-07T08:51:24;2.00;;;1.80;;
21769;SDS011;11046;49.558;8.674;2023-05-07T08:54:25;2.97;;;1.90;;
21769;SDS011;11046;49.558;8.674;2023-05-07T08:57:28;2.42;;;1.80;;
21769;SDS011;11046;49.558;8.674;2023-05-07T09:00:29;2.38;;;1.88;;
21769;SDS011;11046;49.558;8.674;2023-05-07T09:03:31;2.75;;;2.00;;
21769;SDS011;11046;49.558;8.674;2023-05-07T09:06:33;2.10;;;1.90;;
21769;SDS011;11046;49.558;8.674;2023-05-07T09:09:35;3.88;;;2.28;;
21769;SDS011;11046;49.558;8.674;2023-05-07T09:12:39;3.90;;;2.95;;
21769;SDS011;11046;49.558;8.674;2023-05-07T09:15:42;4.30;;;2.42;;
21769;SDS011;11046;49.558;8.674;2023-05-07T09:18:43;6.88;;;2.72;;
21769;SDS011;11046;49.558;8.674;2023-05-07T09:21:47;4.22;;;2.40;;
21769;SDS011;11046;49.558;8.674;2023-05-07T09:24:49;2.80;;;2.08;;
21769;SDS011;11046;49.558;8.674;2023-05-07T09:27:52;4.45;;;2.55;;
21769;SDS011;11046;49.558;8.674;2023-05-07T09:30:53;4.35;;;2.30;;
21769;SDS011;11046;49.558;8.674;2023-05-07T09:33:55;3.40;;;2.40;;
21769;SDS011;11046;49.558;8.674;2023-05-07T09:37:02;2.65;;;2.40;;
21769;SDS011;11046;49.558;8.674;2023-05-07T09:40:04;2.97;;;2.13;;
21769;SDS011;11046;49.558;8.674;2023-05-07T09:43:10;3.15;;;1.98;;
21769;SDS011;11046;49.558;8.674;2023-05-07T09:46:14;2.55;;;2.10;;
21769;SDS011;11046;49.558;8.674;2023-05-07T09:49:22;4.40;;;2.10;;
21769;SDS011;11046;49.558;8.674;2023-05-07T09:52:27;2.83;;;2.17;;
21769;SDS011;11046;49.558;8.674;2023-05-07T09:55:34;5.55;;;2.20;;
21769;SDS011;11046;49.558;8.674;2023-05-07T09:58:36;2.40;;;2.10;;
21769;SDS011;11046;49.558;8.674;2023-05-07T10:01:38;3.80;;;2.10;;
21769;SDS011;11046;49.558;8.674;2023-05-07T10:04:41;2.53;;;2.00;;
21769;SDS011;11046;49.558;8.674;2023-05-07T10:07:43;2.92;;;2.33;;
21769;SDS011;11046;49.558;8.674;2023-05-07T10:10:45;3.70;;;2.40;;
21769;SDS011;11046;49.558;8.674;2023-05-07T10:13:50;2.45;;;1.90;;
21769;SDS011;11046;49.558;8.674;2023-05-07T10:16:52;2.33;;;2.13;;
21769;SDS011;11046;49.558;8.674;2023-05-07T10:19:55;3.63;;;2.20;;
21769;SDS011;11046;49.558;8.674;2023-05-07T10:22:57;1.95;;;1.75;;
21769;SDS011;11046;49.558;8.674;2023-05-07T10:26:06;2.40;;;1.77;;
21769;SDS011;11046;49.558;8.674;2023-05-07T10:29:12;4.05;;;1.75;;
21769;SDS011;11046;49.558;8.674;2023-05-07T10:35:29;3.17;;;1.98;;
21769;SDS011;11046;49.558;8.674;2023-05-07T10:38:34;2.88;;;2.05;;
21769;SDS011;11046;49.558;8.674;2023-05-07T10:41:35;3.63;;;1.70;;
21769;SDS011;11046;49.558;8.674;2023-05-07T10:44:37;2.28;;;1.77;;
21769;SDS011;11046;49.558;8.674;2023-05-07T10:51:18;1.75;;;1.63;;
21769;SDS011;11046;49.558;8.674;2023-05-07T10:54:22;4.32;;;1.70;;
21769;SDS011;11046;49.558;8.674;2023-05-07T10:57:38;1.67;;;1.35;;
21769;SDS011;11046;49.558;8.674;2023-05-07T11:00:57;1.85;;;1.67;;
21769;SDS011;11046;49.558;8.674;2023-05-07T11:04:14;1.80;;;1.65;;
21769;SDS011;11046;49.558;8.674;2023-05-07T11:07:34;3.25;;;1.58;;
21769;SDS011;11046;49.558;8.674;2023-05-07T11:14:22;2.10;;;1.75;;
21769;SDS011;11046;49.558;8.674;2023-05-07T11:20:54;1.50;;;1.38;;
21769;SDS011;11046;49.558;8.674;2023-05-07T11:24:17;2.15;;;1.60;;
21769;SDS011;11046;49.558;8.674;2023-05-07T11:27:32;2.50;;;1.77;;
21769;SDS011;11046;49.558;8.674;2023-05-07T11:30:34;1.92;;;1.80;;
21769;SDS011;11046;49.558;8.674;2023-05-07T11:33:37;2.45;;;1.75;;
21769;SDS011;11046;49.558;8.674;2023-05-07T11:36:41;1.52;;;1.40;;
21769;SDS011;11046;49.558;8.674;2023-05-07T11:39:46;2.72;;;1.73;;
21769;SDS011;11046;49.558;8.674;2023-05-07T11:42:47;1.92;;;1.73;;
21769;SDS011;11046;49.558;8.674;2023-05-07T11:45:48;3.00;;;1.48;;
21769;SDS011;11046;49.558;8.674;2023-05-07T11:48:49;2.83;;;1.60;;
21769;SDS011;11046;49.558;8.674;2023-05-07T11:51:50;4.18;;;1.73;;
21769;SDS011;11046;49.558;8.674;2023-05-07T11:54:54;1.85;;;1.70;;
21769;SDS011;11046;49.558;8.674;2023-05-07T11:57:59;2.50;;;1.83;;
21769;SDS011;11046;49.558;8.674;2023-05-07T12:01:00;1.70;;;1.58;;
21769;SDS011;11046;49.558;8.674;2023-05-07T12:04:02;2.00;;;1.80;;
21769;SDS011;11046;49.558;8.674;2023-05-07T12:07:03;1.92;;;1.38;;
21769;SDS011;11046;49.558;8.674;2023-05-07T12:10:04;2.17;;;1.60;;
21769;SDS011;11046;49.558;8.674;2023-05-07T12:13:13;2.15;;;1.50;;
21769;SDS011;11046;49.558;8.674;2023-05-07T12:16:18;1.70;;;1.60;;
21769;SDS011;11046;49.558;8.674;2023-05-07T12:19:19;3.58;;;1.63;;
21769;SDS011;11046;49.558;8.674;2023-05-07T12:22:20;3.15;;;1.63;;
21769;SDS011;11046;49.558;8.674;2023-05-07T12:25:22;3.05;;;1.77;;
21769;SDS011;11046;49.558;8.674;2023-05-07T12:28:22;2.38;;;1.60;;
21769;SDS011;11046;49.558;8.674;2023-05-07T12:31:25;4.90;;;1.60;;
21769;SDS011;11046;49.558;8.674;2023-05-07T12:34:26;2.35;;;1.45;;
21769;SDS011;11046;49.558;8.674;2023-05-07T12:37:27;3.95;;;1.50;;
21769;SDS011;11046;49.558;8.674;2023-05-07T12:40:42;1.70;;;1.38;;
21769;SDS011;11046;49.558;8.674;2023-05-07T12:43:44;1.73;;;1.48;;
21769;SDS011;11046;49.558;8.674;2023-05-07T12:46:46;2.65;;;1.60;;
21769;SDS011;11046;49.558;8.674;2023-05-07T12:49:47;2.20;;;1.55;;
21769;SDS011;11046;49.558;8.674;2023-05-07T12:52:47;1.90;;;1.50;;
21769;SDS011;11046;49.558;8.674;2023-05-07T12:55:49;1.40;;;1.30;;
21769;SDS011;11046;49.558;8.674;2023-05-07T12:58:59;2.13;;;1.35;;
21769;SDS011;11046;49.558;8.674;2023-05-07T13:01:59;4.50;;;1.63;;
21769;SDS011;11046;49.558;8.674;2023-05-07T13:05:00;2.58;;;1.40;;
21769;SDS011;11046;49.558;8.674;2023-05-07T13:08:01;1.45;;;1.35;;
21769;SDS011;11046;49.558;8.674;2023-05-07T13:11:02;1.92;;;1.40;;
21769;SDS011;11046;49.558;8.674;2023-05-07T13:14:03;1.60;;;1.50;;
21769;SDS011;11046;49.558;8.674;2023-05-07T13:17:04;2.25;;;1.13;;
21769;SDS011;11046;49.558;8.674;2023-05-07T13:20:05;2.45;;;1.40;;
21769;SDS011;11046;49.558;8.674;2023-05-07T13:23:06;2.60;;;1.70;;
21769;SDS011;11046;49.558;8.674;2023-05-07T13:26:06;3.03;;;1.90;;
21769;SDS011;11046;49.558;8.674;2023-05-07T13:29:07;1.60;;;1.50;;
21769;SDS011;11046;49.558;8.674;2023-05-07T13:32:07;1.60;;;1.50;;
21769;SDS011;11046;49.558;8.674;2023-05-07T13:35:08;2.00;;;1.27;;
21769;SDS011;11046;49.558;8.674;2023-05-07T13:38:09;3.58;;;1.55;;
21769;SDS011;11046;49.558;8.674;2023-05-07T13:41:09;2.17;;;1.60;;
21769;SDS011;11046;49.558;8.674;2023-05-07T13:44:10;4.47;;;1.70;;
21769;SDS011;11046;49.558;8.674;2023-05-07T13:47:11;2.65;;;1.67;;
21769;SDS011;11046;49.558;8.674;2023-05-07T13:50:12;1.85;;;1.70;;
21769;SDS011;11046;49.558;8.674;2023-05-07T13:53:13;2.40;;;1.60;;
21769;SDS011;11046;49.558;8.674;2023-05-07T13:56:17;3.42;;;2.05;;
21769;SDS011;11046;49.558;8.674;2023-05-07T13:59:18;2.28;;;1.80;;
21769;SDS011;11046;49.558;8.674;2023-05-07T14:02:19;1.88;;;1.77;;
21769;SDS011;11046;49.558;8.674;2023-05-07T14:05:20;3.35;;;2.00;;
21769;SDS011;11046;49.558;8.674;2023-05-07T14:08:23;5.10;;;2.03;;
21769;SDS011;11046;49.558;8.674;2023-05-07T14:11:23;3.38;;;2.30;;
21769;SDS011;11046;49.558;8.674;2023-05-07T14:14:24;2.05;;;1.95;;
21769;SDS011;11046;49.558;8.674;2023-05-07T14:17:24;2.72;;;2.28;;
21769;SDS011;11046;49.558;8.674;2023-05-07T14:20:26;3.53;;;2.30;;
21769;SDS011;11046;49.558;8.674;2023-05-07T14:23:27;5.78;;;2.42;;
21769;SDS011;11046;49.558;8.674;2023-05-07T14:26:28;3.30;;;2.50;;
21769;SDS011;11046;49.558;8.674;2023-05-07T14:29:29;3.47;;;2.85;;
21769;SDS011;11046;49.558;8.674;2023-05-07T14:32:29;3.40;;;2.35;;
21769;SDS011;11046;49.558;8.674;2023-05-07T14:35:30;3.95;;;2.20;;
21769;SDS011;11046;49.558;8.674;2023-05-07T14:38:30;6.85;;;2.60;;
21769;SDS011;11046;49.558;8.674;2023-05-07T14:41:32;5.35;;;2.50;;
21769;SDS011;11046;49.558;8.674;2023-05-07T14:44:34;8.23;;;3.63;;
21769;SDS011;11046;49.558;8.674;2023-05-07T14:47:35;7.35;;;3.45;;
21769;SDS011;11046;49.558;8.674;2023-05-07T14:50:36;9.57;;;3.50;;
21769;SDS011;11046;49.558;8.674;2023-05-07T14:53:36;11.18;;;3.78;;
21769;SDS011;11046;49.558;8.674;2023-05-07T14:56:37;24.42;;;4.18;;
21769;SDS011;11046;49.558;8.674;2023-05-07T14:59:38;14.20;;;4.22;;
21769;SDS011;11046;49.558;8.674;2023-05-07T15:02:39;6.30;;;3.47;;
21769;SDS011;11046;49.558;8.674;2023-05-07T15:05:39;6.88;;;3.40;;
21769;SDS011;11046;49.558;8.674;2023-05-07T15:08:41;10.95;;;3.50;;
21769;SDS011;11046;49.558;8.674;2023-05-07T15:11:41;27.48;;;4.10;;
21769;SDS011;11046;49.558;8.674;2023-05-07T15:14:42;15.00;;;3.63;;
21769;SDS011;11046;49.558;8.674;2023-05-07T15:17:43;7.90;;;4.15;;
21769;SDS011;11046;49.558;8.674;2023-05-07T15:20:43;26.00;;;4.57;;
21769;SDS011;11046;49.558;8.674;2023-05-07T15:23:44;25.77;;;5.53;;
21769;SDS011;11046;49.558;8.674;2023-05-07T15:26:44;10.10;;;4.88;;
21769;SDS011;11046;49.558;8.674;2023-05-07T15:29:45;7.70;;;4.10;;
21769;SDS011;11046;49.558;8.674;2023-05-07T15:32:46;7.28;;;3.90;;
21769;SDS011;11046;49.558;8.674;2023-05-07T15:35:47;5.82;;;3.90;;
21769;SDS011;11046;49.558;8.674;2023-05-07T15:38:48;9.10;;;3.50;;
21769;SDS011;11046;49.558;8.674;2023-05-07T15:41:48;5.50;;;3.58;;
21769;SDS011;11046;49.558;8.674;2023-05-07T15:44:49;6.60;;;3.30;;
21769;SDS011;11046;49.558;8.674;2023-05-07T15:47:50;4.88;;;2.85;;
21769;SDS011;11046;49.558;8.674;2023-05-07T15:50:50;4.20;;;2.90;;
21769;SDS011;11046;49.558;8.674;2023-05-07T15:53:51;5.25;;;3.72;;
21769;SDS011;11046;49.558;8.674;2023-05-07T15:56:52;11.43;;;2.78;;
21769;SDS011;11046;49.558;8.674;2023-05-07T15:59:52;5.38;;;2.83;;
21769;SDS011;11046;49.558;8.674;2023-05-07T16:02:53;3.15;;;2.40;;
21769;SDS011;11046;49.558;8.674;2023-05-07T16:05:54;7.38;;;2.72;;
21769;SDS011;11046;49.558;8.674;2023-05-07T16:08:59;4.78;;;2.67;;
21769;SDS011;11046;49.558;8.674;2023-05-07T16:12:00;9.10;;;3.30;;
21769;SDS011;11046;49.558;8.674;2023-05-07T16:15:01;5.90;;;3.05;;
21769;SDS011;11046;49.558;8.674;2023-05-07T16:18:02;6.38;;;2.80;;
21769;SDS011;11046;49.558;8.674;2023-05-07T16:21:03;5.32;;;3.00;;
21769;SDS011;11046;49.558;8.674;2023-05-07T16:24:04;5.18;;;2.60;;
21769;SDS011;11046;49.558;8.674;2023-05-07T16:27:05;6.80;;;2.65;;
21769;SDS011;11046;49.558;8.674;2023-05-07T16:30:05;6.65;;;2.90;;
21769;SDS011;11046;49.558;8.674;2023-05-07T16:33:07;3.97;;;2.53;;
21769;SDS011;11046;49.558;8.674;2023-05-07T16:36:08;3.38;;;2.53;;
21769;SDS011;11046;49.558;8.674;2023-05-07T16:39:08;8.98;;;2.63;;
21769;SDS011;11046;49.558;8.674;2023-05-07T16:42:09;1.88;;;1.63;;
21769;SDS011;11046;49.558;8.674;2023-05-07T16:45:10;2.65;;;1.85;;
21769;SDS011;11046;49.558;8.674;2023-05-07T16:48:10;5.85;;;2.40;;
21769;SDS011;11046;49.558;8.674;2023-05-07T16:51:11;4.20;;;2.60;;
21769;SDS011;11046;49.558;8.674;2023-05-07T16:54:12;3.67;;;2.33;;
21769;SDS011;11046;49.558;8.674;2023-05-07T16:57:12;4.53;;;2.70;;
21769;SDS011;11046;49.558;8.674;2023-05-07T17:00:13;10.32;;;2.60;;
21769;SDS011;11046;49.558;8.674;2023-05-07T17:03:14;7.68;;;2.75;;
21769;SDS011;11046;49.558;8.674;2023-05-07T17:06:14;4.60;;;2.33;;
21769;SDS011;11046;49.558;8.674;2023-05-07T17:09:15;6.28;;;2.80;;
21769;SDS011;11046;49.558;8.674;2023-05-07T17:12:16;4.57;;;2.63;;
21769;SDS011;11046;49.558;8.674;2023-05-07T17:15:16;4.13;;;2.65;;
21769;SDS011;11046;49.558;8.674;2023-05-07T17:18:17;2.90;;;2.20;;
21769;SDS011;11046;49.558;8.674;2023-05-07T17:21:17;4.10;;;2.60;;
21769;SDS011;11046;49.558;8.674;2023-05-07T17:24:18;3.60;;;2.45;;
21769;SDS011;11046;49.558;8.674;2023-05-07T17:27:18;7.45;;;4.70;;
21769;SDS011;11046;49.558;8.674;2023-05-07T17:30:19;4.90;;;2.92;;
21769;SDS011;11046;49.558;8.674;2023-05-07T17:33:20;7.13;;;4.05;;
21769;SDS011;11046;49.558;8.674;2023-05-07T17:36:21;6.47;;;3.72;;
21769;SDS011;11046;49.558;8.674;2023-05-07T17:39:21;4.88;;;2.30;;
21769;SDS011;11046;49.558;8.674;2023-05-07T17:42:22;4.90;;;2.53;;
21769;SDS011;11046;49.558;8.674;2023-05-07T17:45:22;5.07;;;2.53;;
21769;SDS011;11046;49.558;8.674;2023-05-07T17:48:23;4.05;;;2.53;;
21769;SDS011;11046;49.558;8.674;2023-05-07T17:51:24;5.47;;;2.60;;
21769;SDS011;11046;49.558;8.674;2023-05-07T17:54:25;3.97;;;2.50;;
21769;SDS011;11046;49.558;8.674;2023-05-07T17:57:25;3.88;;;2.67;;
21769;SDS011;11046;49.558;8.674;2023-05-07T18:00:26;5.60;;;2.70;;
21769;SDS011;11046;49.558;8.674;2023-05-07T18:03:27;5.50;;;2.63;;
21769;SDS011;11046;49.558;8.674;2023-05-07T18:06:28;3.95;;;2.35;;
21769;SDS011;11046;49.558;8.674;2023-05-07T18:09:29;2.80;;;2.40;;
21769;SDS011;11046;49.558;8.674;2023-05-07T18:12:30;5.78;;;2.70;;
21769;SDS011;11046;49.558;8.674;2023-05-07T18:15:30;7.75;;;3.15;;
21769;SDS011;11046;49.558;8.674;2023-05-07T18:18:31;6.35;;;2.47;;
21769;SDS011;11046;49.558;8.674;2023-05-07T18:21:34;5.93;;;2.60;;
21769;SDS011;11046;49.558;8.674;2023-05-07T18:24:34;5.35;;;3.33;;
21769;SDS011;11046;49.558;8.674;2023-05-07T18:27:35;2.45;;;1.90;;
21769;SDS011;11046;49.558;8.674;2023-05-07T18:30:35;2.42;;;1.83;;